createdAt,value
2022-08-24T00:00:17.419Z,1.40
2022-08-24T00:02:44.404Z,1.55
2022-08-24T00:05:14.696Z,1.27
2022-08-24T00:07:42.301Z,1.50
2022-08-24T00:10:11.724Z,1.23
2022-08-24T00:12:38.528Z,1.48
2022-08-24T00:15:07.465Z,1.40
2022-08-24T00:17:34.314Z,1.42
2022-08-24T00:20:02.478Z,1.60
2022-08-24T00:22:29.280Z,1.38
2022-08-24T00:24:56.882Z,1.20
2022-08-24T00:27:23.728Z,1.27
2022-08-24T00:29:50.533Z,1.40
2022-08-24T00:32:17.336Z,1.42
2022-08-24T00:34:54.046Z,1.48
2022-08-24T00:37:28.618Z,1.33
2022-08-24T00:39:56.428Z,1.20
2022-08-24T00:42:24.601Z,1.45
2022-08-24T00:44:52.165Z,1.30
2022-08-24T00:47:25.246Z,1.40
2022-08-24T00:50:00.880Z,1.27
2022-08-24T00:52:39.712Z,1.48
2022-08-24T00:55:32.900Z,1.60
2022-08-24T00:58:03.122Z,1.30
2022-08-24T01:00:34.932Z,1.45
2022-08-24T01:03:05.173Z,1.35
2022-08-24T01:05:33.392Z,1.45
2022-08-24T01:08:02.106Z,1.35
2022-08-24T01:10:35.390Z,1.40
2022-08-24T01:13:05.882Z,1.40
2022-08-24T01:15:42.035Z,1.40
2022-08-24T01:18:32.909Z,1.50
2022-08-24T01:21:25.847Z,1.48
2022-08-24T01:23:57.367Z,1.58
2022-08-24T01:26:32.449Z,1.33
2022-08-24T01:29:09.513Z,1.30
2022-08-24T01:31:36.516Z,1.70
2022-08-24T01:34:04.196Z,1.30
2022-08-24T01:36:36.127Z,1.50
2022-08-24T01:39:17.101Z,2.70
2022-08-24T01:41:44.075Z,1.38
2022-08-24T01:44:11.125Z,1.58
2022-08-24T01:46:38.052Z,1.20
2022-08-24T01:49:05.445Z,1.80
2022-08-24T01:51:34.067Z,1.40
2022-08-24T01:54:03.175Z,1.80
2022-08-24T01:56:34.088Z,1.40
2022-08-24T01:59:01.324Z,1.30
2022-08-24T02:01:31.722Z,1.38
2022-08-24T02:04:02.550Z,1.38
2022-08-24T02:06:29.752Z,1.30
2022-08-24T02:08:56.576Z,1.65
2022-08-24T02:11:23.483Z,1.38
2022-08-24T02:13:50.337Z,1.63
2022-08-24T02:16:19.540Z,1.35
2022-08-24T02:18:46.864Z,1.08
2022-08-24T02:21:14.334Z,1.10
2022-08-24T02:23:42.608Z,1.42
2022-08-24T02:26:10.580Z,1.38
2022-08-24T02:28:38.563Z,1.42
2022-08-24T02:31:07.590Z,1.60
2022-08-24T02:33:36.288Z,1.70
2022-08-24T02:36:03.987Z,1.30
2022-08-24T02:38:34.068Z,1.40
2022-08-24T02:41:01.011Z,1.38
2022-08-24T02:43:28.189Z,1.52
2022-08-24T02:45:55.498Z,1.13
2022-08-24T02:48:22.305Z,1.25
2022-08-24T02:50:51.351Z,1.30
2022-08-24T02:53:20.479Z,1.50
2022-08-24T02:55:47.288Z,1.60
2022-08-24T02:58:16.510Z,1.27
2022-08-24T03:00:47.351Z,1.35
2022-08-24T03:03:14.772Z,1.48
2022-08-24T03:05:41.580Z,1.50
2022-08-24T03:08:08.386Z,1.33
2022-08-24T03:10:35.451Z,1.50
2022-08-24T03:13:03.107Z,1.38
2022-08-24T03:15:30.267Z,1.50
2022-08-24T03:17:57.704Z,1.50
2022-08-24T03:20:24.995Z,1.70
2022-08-24T03:22:52.790Z,1.50
2022-08-24T03:25:21.675Z,1.63
2022-08-24T03:27:48.411Z,1.75
2022-08-24T03:30:18.082Z,1.50
2022-08-24T03:32:44.906Z,1.73
2022-08-24T03:35:12.551Z,1.40
2022-08-24T03:37:39.886Z,1.40
2022-08-24T03:40:12.166Z,1.38
2022-08-24T03:42:50.625Z,1.70
2022-08-24T03:45:18.489Z,1.40
2022-08-24T03:47:45.500Z,1.42
2022-08-24T03:50:12.432Z,1.20
2022-08-24T03:52:39.204Z,1.40
2022-08-24T03:55:07.012Z,1.70
2022-08-24T03:57:33.792Z,1.80
2022-08-24T04:00:01.437Z,1.65
2022-08-24T04:02:32.446Z,1.48
2022-08-24T04:04:59.865Z,1.50
2022-08-24T04:07:27.439Z,1.60
2022-08-24T04:09:54.275Z,1.30
2022-08-24T04:12:23.362Z,1.52
2022-08-24T04:14:55.856Z,1.70
2022-08-24T04:17:22.693Z,1.38
2022-08-24T04:19:59.080Z,1.70
2022-08-24T04:22:31.056Z,1.38
2022-08-24T04:24:57.939Z,1.55
2022-08-24T04:27:24.842Z,1.33
2022-08-24T04:29:51.980Z,1.77
2022-08-24T04:32:19.362Z,1.48
2022-08-24T04:34:47.079Z,1.90
2022-08-24T04:37:14.339Z,1.40
2022-08-24T04:39:42.222Z,1.67
2022-08-24T04:42:09.739Z,1.67
2022-08-24T04:48:27.298Z,1.77
2022-08-24T04:54:40.530Z,2.00
2022-08-24T04:57:07.342Z,1.65
2022-08-24T04:59:34.172Z,1.73
2022-08-24T05:02:01.052Z,2.00
2022-08-24T05:04:27.968Z,2.10
2022-08-24T05:06:56.354Z,1.95
2022-08-24T05:09:23.205Z,2.25
2022-08-24T05:11:51.072Z,1.65
2022-08-24T05:14:18.023Z,1.58
2022-08-24T05:16:45.812Z,1.58
2022-08-24T05:19:20.283Z,1.85
2022-08-24T05:21:47.379Z,1.92
2022-08-24T05:24:14.248Z,1.70
2022-08-24T05:26:41.299Z,1.48
2022-08-24T05:29:09.351Z,2.00
2022-08-24T05:31:36.218Z,1.70
2022-08-24T05:34:04.684Z,1.70
2022-08-24T05:36:34.688Z,1.67
2022-08-24T05:39:06.977Z,1.60
2022-08-24T05:41:37.900Z,1.67
2022-08-24T05:44:06.504Z,2.10
2022-08-24T05:46:33.710Z,1.83
2022-08-24T05:49:01.211Z,1.83
2022-08-24T05:51:29.685Z,1.40
2022-08-24T05:53:57.504Z,1.90
2022-08-24T05:56:26.689Z,1.77
2022-08-24T05:58:55.636Z,2.00
2022-08-24T06:01:27.369Z,1.67
2022-08-24T06:06:23.854Z,1.75
2022-08-24T06:08:53.110Z,2.20
2022-08-24T06:11:30.361Z,1.83
2022-08-24T06:14:07.220Z,2.35
2022-08-24T06:16:36.703Z,1.95
2022-08-24T06:19:05.059Z,1.92
2022-08-24T06:21:32.639Z,1.60
2022-08-24T06:24:00.519Z,1.70
2022-08-24T06:26:50.351Z,2.53
2022-08-24T06:29:19.039Z,1.80
2022-08-24T06:31:49.321Z,1.98
2022-08-24T06:34:22.438Z,1.92
2022-08-24T06:36:49.292Z,2.08
2022-08-24T06:39:16.102Z,1.80
2022-08-24T06:41:43.960Z,1.98
2022-08-24T06:44:10.908Z,2.00
2022-08-24T06:46:38.242Z,2.00
2022-08-24T06:49:05.457Z,2.10
2022-08-24T06:51:32.711Z,1.98
2022-08-24T06:54:00.091Z,2.22
2022-08-24T06:56:26.991Z,2.47
2022-08-24T06:58:53.893Z,2.10
2022-08-24T07:01:26.635Z,2.00
2022-08-24T07:03:54.023Z,2.20
2022-08-24T07:06:22.739Z,4.93
2022-08-24T07:08:49.903Z,2.22
2022-08-24T07:11:18.193Z,2.67
2022-08-24T07:13:49.351Z,1.95
2022-08-24T07:16:17.891Z,1.83
2022-08-24T07:18:49.315Z,1.63
2022-08-24T07:21:19.467Z,1.80
2022-08-24T07:23:48.369Z,1.73
2022-08-24T07:26:22.630Z,1.80
2022-08-24T07:29:01.155Z,6.53
2022-08-24T07:31:32.071Z,5.28
2022-08-24T07:34:01.670Z,2.85
2022-08-24T07:36:28.672Z,2.85
2022-08-24T07:38:55.611Z,2.10
2022-08-24T07:41:51.407Z,1.77
2022-08-24T07:44:12.590Z,1.65
2022-08-24T07:46:41.126Z,1.73
2022-08-24T07:51:55.824Z,1.20
2022-08-24T07:54:22.848Z,1.60
2022-08-24T07:56:50.314Z,0.93
2022-08-24T07:59:17.763Z,1.20
2022-08-24T08:01:44.690Z,1.35
2022-08-24T08:04:12.199Z,0.90
2022-08-24T08:06:39.039Z,1.33
2022-08-24T08:09:06.250Z,1.20
2022-08-24T08:11:33.658Z,1.08
2022-08-24T08:14:00.542Z,1.60
2022-08-24T08:16:27.848Z,1.40
2022-08-24T08:19:09.335Z,1.13
2022-08-24T08:22:04.265Z,1.00
2022-08-24T08:24:31.187Z,1.10
2022-08-24T08:26:58.189Z,1.05
2022-08-24T08:33:14.423Z,1.52
2022-08-24T08:35:41.746Z,1.60
2022-08-24T08:38:09.132Z,1.33
2022-08-24T08:40:45.197Z,1.50
2022-08-24T08:43:44.245Z,2.20
2022-08-24T08:46:29.926Z,1.02
2022-08-24T08:49:02.587Z,1.20
2022-08-24T08:52:07.469Z,1.27
2022-08-24T08:54:50.049Z,1.20
2022-08-24T08:57:39.646Z,1.13
2022-08-24T09:00:25.146Z,1.00
2022-08-24T09:03:29.672Z,1.50
2022-08-24T09:06:02.492Z,1.90
2022-08-24T09:08:52.235Z,1.20
2022-08-24T09:11:19.058Z,1.15
2022-08-24T09:14:07.987Z,1.30
2022-08-24T09:16:55.082Z,1.05
2022-08-24T09:19:53.796Z,1.30
2022-08-24T09:22:21.888Z,1.42
2022-08-24T09:24:54.747Z,1.42
2022-08-24T09:27:36.662Z,1.30
2022-08-24T09:30:16.929Z,1.52
2022-08-24T09:32:56.108Z,1.30
2022-08-24T09:35:47.905Z,1.42
2022-08-24T09:38:23.245Z,1.60
2022-08-24T09:41:33.240Z,1.33
2022-08-24T09:44:21.934Z,1.40
2022-08-24T09:47:00.768Z,1.42
2022-08-24T09:49:53.028Z,1.48
2022-08-24T09:52:42.246Z,1.40
2022-08-24T09:55:20.960Z,1.40
2022-08-24T09:58:20.144Z,1.77
2022-08-24T10:01:14.620Z,1.50
2022-08-24T10:04:26.207Z,1.77
2022-08-24T10:07:13.795Z,1.13
2022-08-24T10:10:04.255Z,1.73
2022-08-24T10:12:39.861Z,1.30
2022-08-24T10:15:16.619Z,1.42
2022-08-24T10:18:25.344Z,1.65
2022-08-24T10:21:13.282Z,1.63
2022-08-24T10:23:52.103Z,1.60
2022-08-24T10:26:34.027Z,1.50
2022-08-24T10:29:45.430Z,1.60
2022-08-24T10:32:49.722Z,1.30
2022-08-24T10:35:39.330Z,1.55
2022-08-24T10:38:41.909Z,1.80
2022-08-24T10:41:34.427Z,1.77
2022-08-24T10:44:43.754Z,1.65
2022-08-24T10:47:26.892Z,1.85
2022-08-24T10:50:12.515Z,1.70
2022-08-24T10:52:48.749Z,1.70
2022-08-24T10:55:21.608Z,1.52
2022-08-24T10:57:51.346Z,1.40
2022-08-24T11:00:22.854Z,1.85
2022-08-24T11:03:04.951Z,1.98
2022-08-24T11:05:39.665Z,1.50
2022-08-24T11:08:07.398Z,2.05
2022-08-24T11:10:39.901Z,1.77
2022-08-24T11:13:25.679Z,1.90
2022-08-24T11:15:57.944Z,2.00
2022-08-24T11:18:24.936Z,1.98
2022-08-24T11:20:55.107Z,1.80
2022-08-24T11:23:31.708Z,1.83
2022-08-24T11:27:14.811Z,1.60
2022-08-24T11:29:53.334Z,1.80
2022-08-24T11:32:40.838Z,1.83
2022-08-24T11:35:21.063Z,1.60
2022-08-24T11:37:50.827Z,2.03
2022-08-24T11:40:21.636Z,1.90
2022-08-24T11:43:05.971Z,2.00
2022-08-24T11:46:06.503Z,1.80
2022-08-24T11:48:54.192Z,1.92
2022-08-24T11:55:06.331Z,2.00
2022-08-24T11:57:51.940Z,2.00
2022-08-24T12:00:22.911Z,2.00
2022-08-24T12:03:18.091Z,1.87
2022-08-24T12:06:02.918Z,1.65
2022-08-24T12:09:00.594Z,1.90
2022-08-24T12:11:42.414Z,1.95
2022-08-24T12:18:28.267Z,2.40
2022-08-24T12:20:58.578Z,1.92
2022-08-24T12:24:13.246Z,2.00
2022-08-24T12:26:48.581Z,2.22
2022-08-24T12:29:29.110Z,2.03
2022-08-24T12:32:05.454Z,2.05
2022-08-24T12:43:27.659Z,1.92
2022-08-24T12:46:15.208Z,2.15
2022-08-24T12:56:19.033Z,2.20
2022-08-24T12:59:23.387Z,2.38
2022-08-24T13:02:05.672Z,2.67
2022-08-24T13:09:08.601Z,2.53
2022-08-24T13:16:14.214Z,1.90
2022-08-24T13:19:12.527Z,2.22
2022-08-24T13:21:50.792Z,2.47
2022-08-24T13:24:30.190Z,2.25
2022-08-24T13:27:11.994Z,2.80
2022-08-24T13:29:42.395Z,2.70
2022-08-24T13:39:49.791Z,2.58
2022-08-24T13:45:57.023Z,3.25
2022-08-24T13:48:38.879Z,2.75
2022-08-24T13:51:20.631Z,2.80
2022-08-24T13:54:20.189Z,3.30
2022-08-24T13:57:25.898Z,2.75
2022-08-24T14:00:34.058Z,2.90
2022-08-24T14:03:12.633Z,3.63
2022-08-24T14:05:54.250Z,3.03
2022-08-24T14:09:02.336Z,3.40
2022-08-24T14:11:54.977Z,2.90
2022-08-24T14:14:58.850Z,3.38
2022-08-24T14:24:01.921Z,2.90
2022-08-24T14:29:19.945Z,3.35
2022-08-24T14:32:01.560Z,4.43
2022-08-24T14:35:16.512Z,3.83
2022-08-24T14:38:24.549Z,4.07
2022-08-24T14:41:12.362Z,3.33
2022-08-24T14:44:17.139Z,3.60
2022-08-24T14:47:22.987Z,3.30
2022-08-24T14:49:58.593Z,3.83
2022-08-24T14:53:21.387Z,3.80
2022-08-24T14:56:39.095Z,4.00
2022-08-24T14:59:11.695Z,4.28
2022-08-24T15:02:16.229Z,4.22
2022-08-24T15:04:48.459Z,3.83
2022-08-24T15:07:20.867Z,3.75
2022-08-24T15:09:48.212Z,4.03
2022-08-24T15:12:37.585Z,3.70
2022-08-24T15:15:21.374Z,3.65
2022-08-24T15:18:00.403Z,3.90
2022-08-24T15:20:36.132Z,3.88
2022-08-24T15:23:27.805Z,4.20
2022-08-24T15:28:35.222Z,4.00
2022-08-24T15:31:09.129Z,4.20
2022-08-24T15:36:18.788Z,3.88
2022-08-24T15:38:46.525Z,3.88
2022-08-24T15:41:31.578Z,3.85
2022-08-24T15:44:24.475Z,4.30
2022-08-24T15:47:04.374Z,4.20
2022-08-24T15:49:45.040Z,3.92
2022-08-24T15:52:40.838Z,3.67
2022-08-24T15:55:13.981Z,4.25
2022-08-24T15:57:44.374Z,4.30
2022-08-24T16:00:44.363Z,4.00
2022-08-24T16:03:42.922Z,4.47
2022-08-24T16:06:31.212Z,4.00
2022-08-24T16:08:59.712Z,3.83
2022-08-24T16:11:41.336Z,3.95
2022-08-24T16:16:44.807Z,4.70
2022-08-24T16:19:28.045Z,4.47
2022-08-24T16:22:05.266Z,4.45
2022-08-24T16:24:36.160Z,4.28
2022-08-24T16:27:06.416Z,3.80
2022-08-24T16:29:39.078Z,4.28
2022-08-24T16:32:21.644Z,4.47
2022-08-24T16:35:08.011Z,4.13
2022-08-24T16:37:35.083Z,4.45
2022-08-24T16:40:01.975Z,4.18
2022-08-24T16:42:30.475Z,4.53
2022-08-24T16:44:58.897Z,4.70
2022-08-24T16:47:26.965Z,4.40
2022-08-24T16:49:54.551Z,4.30
2022-08-24T16:52:22.396Z,4.95
2022-08-24T16:54:49.996Z,4.47
2022-08-24T16:57:32.235Z,4.50
2022-08-24T16:59:59.714Z,4.60
2022-08-24T17:02:27.027Z,4.63
2022-08-24T17:04:54.818Z,4.40
2022-08-24T17:07:25.476Z,4.85
2022-08-24T17:09:52.794Z,4.25
2022-08-24T17:12:20.858Z,4.50
2022-08-24T17:14:48.082Z,4.95
2022-08-24T17:17:23.288Z,4.88
2022-08-24T17:19:53.458Z,4.75
2022-08-24T17:22:40.216Z,4.57
2022-08-24T17:25:07.229Z,4.35
2022-08-24T17:27:34.435Z,4.70
2022-08-24T17:30:03.824Z,5.05
2022-08-24T17:32:30.685Z,5.03
2022-08-24T17:34:58.101Z,4.70
2022-08-24T17:37:25.278Z,4.80
2022-08-24T17:39:56.634Z,5.05
2022-08-24T17:42:47.216Z,4.55
2022-08-24T17:45:13.041Z,4.63
2022-08-24T17:47:41.417Z,4.55
2022-08-24T17:50:10.292Z,5.45
2022-08-24T17:52:38.827Z,6.03
2022-08-24T17:55:09.552Z,5.60
2022-08-24T17:57:37.319Z,5.10
2022-08-24T18:00:06.539Z,5.10
2022-08-24T18:02:34.825Z,4.60
2022-08-24T18:05:01.808Z,5.13
2022-08-24T18:07:49.520Z,5.60
2022-08-24T18:10:20.699Z,5.32
2022-08-24T18:12:47.515Z,5.43
2022-08-24T18:15:14.321Z,5.03
2022-08-24T18:17:51.577Z,5.28
2022-08-24T18:20:32.216Z,5.75
2022-08-24T18:26:49.300Z,5.72
2022-08-24T18:29:19.379Z,5.55
2022-08-24T18:31:48.260Z,5.65
2022-08-24T18:34:21.188Z,5.35
2022-08-24T18:37:10.804Z,6.30
2022-08-24T18:40:34.615Z,5.75
2022-08-24T18:46:48.906Z,5.50
2022-08-24T18:49:17.044Z,5.53
2022-08-24T18:51:45.026Z,5.43
2022-08-24T18:54:21.675Z,5.85
2022-08-24T18:56:49.711Z,5.95
2022-08-24T18:59:18.751Z,5.68
2022-08-24T19:02:07.215Z,5.93
2022-08-24T19:04:42.124Z,5.53
2022-08-24T19:07:08.944Z,6.13
2022-08-24T19:10:10.599Z,5.60
2022-08-24T19:12:40.560Z,6.30
2022-08-24T19:15:32.324Z,5.88
2022-08-24T19:18:01.021Z,6.10
2022-08-24T19:20:28.243Z,5.97
2022-08-24T19:23:05.187Z,5.93
2022-08-24T19:25:32.950Z,5.70
2022-08-24T19:27:59.805Z,6.80
2022-08-24T19:30:28.070Z,5.65
2022-08-24T19:32:59.327Z,5.63
2022-08-24T19:35:26.395Z,6.50
2022-08-24T19:37:53.237Z,6.00
2022-08-24T19:40:21.163Z,6.70
2022-08-24T19:42:50.886Z,5.57
2022-08-24T19:45:40.783Z,5.72
2022-08-24T19:48:07.583Z,5.90
2022-08-24T19:50:36.094Z,5.85
2022-08-24T19:53:04.766Z,5.45
2022-08-24T19:55:32.996Z,5.63
2022-08-24T19:58:32.398Z,6.65
2022-08-24T20:01:11.571Z,6.20
2022-08-24T20:03:38.470Z,6.40
2022-08-24T20:06:05.703Z,6.05
2022-08-24T20:08:32.470Z,6.15
2022-08-24T20:11:00.558Z,6.32
2022-08-24T20:13:27.897Z,5.57
2022-08-24T20:15:56.156Z,5.72
2022-08-24T20:18:41.472Z,6.15
2022-08-24T20:21:08.767Z,6.28
2022-08-24T20:23:35.923Z,6.90
2022-08-24T20:26:05.614Z,6.13
2022-08-24T20:28:48.280Z,6.00
2022-08-24T20:31:16.159Z,5.93
2022-08-24T20:33:43.031Z,6.45
2022-08-24T20:36:21.318Z,6.40
2022-08-24T20:38:48.387Z,7.00
2022-08-24T20:41:16.426Z,6.25
2022-08-24T20:43:44.388Z,6.03
2022-08-24T20:46:11.506Z,6.22
2022-08-24T20:48:43.010Z,6.68
2022-08-24T20:53:37.734Z,6.30
2022-08-24T20:56:11.647Z,6.22
2022-08-24T20:58:40.063Z,5.90
2022-08-24T21:01:08.340Z,5.47
2022-08-24T21:03:35.211Z,5.95
2022-08-24T21:06:02.860Z,5.95
2022-08-24T21:08:29.968Z,6.47
2022-08-24T21:10:56.808Z,6.30
2022-08-24T21:13:23.610Z,5.90
2022-08-24T21:15:52.297Z,7.22
2022-08-24T21:18:19.907Z,6.70
2022-08-24T21:21:03.205Z,6.72
2022-08-24T21:23:31.462Z,6.55
2022-08-24T21:25:59.556Z,6.32
2022-08-24T21:28:26.468Z,5.93
2022-08-24T21:30:53.381Z,5.90
2022-08-24T21:33:39.915Z,6.18
2022-08-24T21:36:08.987Z,6.30
2022-08-24T21:38:35.812Z,6.10
2022-08-24T21:41:02.763Z,6.88
2022-08-24T21:43:32.075Z,6.40
2022-08-24T21:46:00.425Z,6.68
2022-08-24T21:48:27.431Z,5.93
2022-08-24T21:50:54.399Z,7.00
2022-08-24T21:53:21.149Z,6.47
2022-08-24T21:55:49.152Z,6.38
2022-08-24T21:58:15.916Z,6.70
2022-08-24T22:00:42.735Z,7.22
2022-08-24T22:03:10.053Z,7.20
2022-08-24T22:05:36.931Z,7.10
2022-08-24T22:08:04.300Z,7.05
2022-08-24T22:10:31.736Z,7.07
2022-08-24T22:13:03.653Z,6.78
2022-08-24T22:15:33.113Z,6.60
2022-08-24T22:18:00.480Z,6.93
2022-08-24T22:20:27.523Z,6.97
2022-08-24T22:22:54.310Z,7.50
2022-08-24T22:25:21.157Z,7.30
2022-08-24T22:27:48.024Z,6.65
2022-08-24T22:30:18.051Z,6.75
2022-08-24T22:32:46.303Z,7.32
2022-08-24T22:35:14.311Z,6.75
2022-08-24T22:37:41.928Z,7.70
2022-08-24T22:40:10.283Z,7.60
2022-08-24T22:42:39.922Z,7.37
2022-08-24T22:45:07.266Z,6.65
2022-08-24T22:47:34.055Z,7.00
2022-08-24T22:50:00.879Z,6.22
2022-08-24T22:52:27.859Z,7.03
2022-08-24T22:54:56.973Z,7.00
2022-08-24T22:57:24.727Z,7.07
2022-08-24T22:59:53.644Z,7.30
2022-08-24T23:02:20.534Z,7.82
2022-08-24T23:04:49.802Z,7.05
2022-08-24T23:07:17.647Z,7.03
2022-08-24T23:09:45.967Z,6.88
2022-08-24T23:12:16.550Z,6.88
2022-08-24T23:14:43.535Z,7.55
2022-08-24T23:17:10.911Z,7.15
2022-08-24T23:19:56.767Z,7.07
2022-08-24T23:22:23.772Z,7.22
2022-08-24T23:24:52.963Z,7.28
2022-08-24T23:27:20.194Z,7.03
2022-08-24T23:29:48.555Z,7.60
2022-08-24T23:32:18.211Z,8.30
2022-08-24T23:34:46.720Z,7.68
2022-08-24T23:37:15.502Z,7.57
2022-08-24T23:39:43.132Z,7.05
2022-08-24T23:42:09.935Z,7.65
2022-08-24T23:44:36.797Z,7.35
2022-08-24T23:47:04.099Z,7.03
2022-08-24T23:49:31.158Z,7.13
2022-08-24T23:51:58.559Z,7.28
2022-08-24T23:54:25.811Z,7.38
2022-08-24T23:56:53.580Z,6.60
2022-08-24T23:59:27.877Z,7.03
